createdAt,value
2023-02-04T00:03:55.917Z,33.17
2023-02-04T00:09:00.720Z,33.04
2023-02-04T00:14:06.510Z,32.95
2023-02-04T00:19:11.371Z,32.95
2023-02-04T00:24:15.958Z,32.13
2023-02-04T00:29:20.570Z,31.35
2023-02-04T00:34:25.506Z,31.68
2023-02-04T00:39:30.358Z,31.57
2023-02-04T00:44:37.649Z,31.77
2023-02-04T00:49:42.375Z,30.55
2023-02-04T00:54:47.132Z,31.02
2023-02-04T00:59:52.007Z,30.45
2023-02-04T01:04:56.751Z,31.24
2023-02-04T01:10:01.561Z,29.94
2023-02-04T01:15:07.014Z,30.98
2023-02-04T01:20:22.445Z,31.26
2023-02-04T01:25:27.934Z,29.86
2023-02-04T01:30:33.170Z,30.32
2023-02-04T01:35:38.139Z,29.64
2023-02-04T01:40:45.554Z,30.36
2023-02-04T01:45:53.071Z,30.35
2023-02-04T01:51:19.197Z,29.83
2023-02-04T01:56:29.008Z,30.04
2023-02-04T02:01:46.392Z,29.65
2023-02-04T02:07:04.686Z,29.78
2023-02-04T02:12:09.469Z,30.65
2023-02-04T02:17:14.373Z,30.04
2023-02-04T02:22:31.209Z,29.88
2023-02-04T02:27:36.142Z,29.30
2023-02-04T02:32:41.383Z,29.39
2023-02-04T02:37:46.566Z,29.32
2023-02-04T02:42:55.098Z,29.16
2023-02-04T02:48:02.122Z,29.26
2023-02-04T02:53:12.702Z,29.20
2023-02-04T02:58:33.556Z,28.62
2023-02-04T03:03:40.190Z,29.28
2023-02-04T03:08:46.379Z,28.81
2023-02-04T03:13:53.210Z,29.36
2023-02-04T03:18:58.297Z,28.64
2023-02-04T03:24:04.430Z,28.63
2023-02-04T03:29:11.529Z,28.85
2023-02-04T03:34:16.387Z,27.89
2023-02-04T03:39:21.685Z,29.04
2023-02-04T03:44:31.411Z,28.63
2023-02-04T03:49:37.461Z,28.49
2023-02-04T03:54:44.790Z,28.96
2023-02-04T03:59:49.756Z,28.82
2023-02-04T04:04:54.694Z,28.24
2023-02-04T04:09:59.570Z,28.45
2023-02-04T04:15:04.836Z,27.71
2023-02-04T04:20:10.492Z,28.39
2023-02-04T04:25:15.512Z,28.30
2023-02-04T04:30:22.077Z,28.30
2023-02-04T04:35:27.811Z,28.15
2023-02-04T04:40:33.371Z,28.03
2023-02-04T04:45:38.582Z,27.36
2023-02-04T04:50:44.086Z,28.14
2023-02-04T04:55:49.106Z,27.04
2023-02-04T05:00:53.568Z,27.85
2023-02-04T05:05:58.675Z,27.78
2023-02-04T05:11:05.426Z,27.60
2023-02-04T05:16:13.553Z,27.57
2023-02-04T05:21:18.667Z,26.84
2023-02-04T05:26:30.335Z,26.35
2023-02-04T05:31:37.524Z,26.45
2023-02-04T05:36:43.795Z,26.88
2023-02-04T05:41:52.103Z,25.83
2023-02-04T05:46:57.752Z,26.70
2023-02-04T05:52:02.998Z,26.93
2023-02-04T05:57:08.259Z,26.00
2023-02-04T06:02:13.388Z,25.56
2023-02-04T06:07:19.055Z,23.70
2023-02-04T06:12:24.564Z,23.45
2023-02-04T06:17:30.610Z,26.21
2023-02-04T06:22:35.991Z,25.82
2023-02-04T06:27:42.303Z,24.04
2023-02-04T06:32:48.334Z,25.86
2023-02-04T06:37:53.524Z,25.61
2023-02-04T06:43:00.865Z,26.37
2023-02-04T06:48:06.431Z,25.89
2023-02-04T06:53:12.046Z,25.84
2023-02-04T06:58:18.686Z,24.99
2023-02-04T07:03:23.915Z,25.92
2023-02-04T07:08:29.250Z,26.29
2023-02-04T07:13:34.885Z,26.04
2023-02-04T07:18:41.197Z,23.99
2023-02-04T07:23:46.627Z,24.87
2023-02-04T07:28:52.237Z,24.82
2023-02-04T07:33:59.964Z,24.89
2023-02-04T07:39:05.739Z,24.71
2023-02-04T07:44:11.677Z,25.45
2023-02-04T07:49:18.413Z,25.22
2023-02-04T07:54:24.025Z,25.40
2023-02-04T07:59:30.699Z,25.10
2023-02-04T08:04:37.326Z,25.56
2023-02-04T08:09:43.010Z,24.41
2023-02-04T08:14:48.326Z,25.40
2023-02-04T08:19:54.002Z,25.43
2023-02-04T08:24:59.527Z,25.42
2023-02-04T08:30:05.771Z,25.29
2023-02-04T08:48:45.947Z,25.43
2023-02-04T08:53:52.194Z,25.68
2023-02-04T08:58:57.319Z,25.25
2023-02-04T09:04:03.844Z,25.69
2023-02-04T09:09:08.967Z,25.11
2023-02-04T09:14:14.162Z,25.71
2023-02-04T09:19:25.369Z,25.75
2023-02-04T09:24:32.078Z,25.53
2023-02-04T09:29:37.208Z,25.77
2023-02-04T09:34:42.730Z,25.72
2023-02-04T09:39:47.922Z,25.79
2023-02-04T09:44:53.532Z,25.54
2023-02-04T09:49:59.257Z,25.76
2023-02-04T09:55:04.154Z,25.50
2023-02-04T10:00:21.974Z,25.80
2023-02-04T10:05:32.679Z,25.91
2023-02-04T10:10:37.685Z,25.02
2023-02-04T10:15:42.542Z,25.63
2023-02-04T10:20:47.373Z,25.85
2023-02-04T10:25:52.261Z,26.07
2023-02-04T10:30:57.374Z,25.77
2023-02-04T10:36:03.402Z,25.78
2023-02-04T10:41:08.100Z,26.25
2023-02-04T10:46:14.183Z,26.11
2023-02-04T10:51:19.062Z,25.90
2023-02-04T10:56:24.443Z,26.40
2023-02-04T11:01:31.623Z,25.45
2023-02-04T11:06:36.896Z,26.18
2023-02-04T11:11:46.928Z,26.07
2023-02-04T11:16:53.407Z,26.70
2023-02-04T11:22:23.605Z,26.64
2023-02-04T11:27:43.012Z,26.17
2023-02-04T11:33:03.285Z,26.23
2023-02-04T11:38:30.022Z,26.44
2023-02-04T11:43:39.175Z,26.85
2023-02-04T11:48:45.498Z,26.79
2023-02-04T11:53:54.697Z,26.75
2023-02-04T11:59:01.143Z,26.32
2023-02-04T12:04:09.210Z,26.95
2023-02-04T12:09:33.267Z,26.59
2023-02-04T12:14:41.456Z,27.09
2023-02-04T12:19:46.605Z,27.16
2023-02-04T12:24:52.912Z,28.02
2023-02-04T12:29:58.031Z,27.90
2023-02-04T12:35:03.022Z,27.67
2023-02-04T12:40:09.031Z,27.81
2023-02-04T12:45:17.884Z,28.18
2023-02-04T12:50:27.635Z,28.02
2023-02-04T12:55:33.689Z,28.30
2023-02-04T13:00:40.002Z,28.05
2023-02-04T13:05:45.836Z,28.77
2023-02-04T13:10:53.283Z,28.52
2023-02-04T13:15:58.653Z,28.71
2023-02-04T13:21:04.399Z,28.88
2023-02-04T13:26:12.078Z,28.92
2023-02-04T13:31:19.520Z,28.58
2023-02-04T13:36:25.316Z,28.91
2023-02-04T13:41:31.233Z,29.23
2023-02-04T13:46:39.905Z,29.38
2023-02-04T13:51:45.576Z,29.08
2023-02-04T13:56:51.487Z,28.39
2023-02-04T14:01:57.313Z,28.49
2023-02-04T14:07:03.376Z,28.28
2023-02-04T14:12:09.746Z,28.67
2023-02-04T14:17:14.307Z,28.60
2023-02-04T14:22:23.923Z,28.73
2023-02-04T14:27:29.605Z,29.69
2023-02-04T14:32:35.184Z,29.21
2023-02-04T14:37:41.015Z,29.47
2023-02-04T14:42:46.457Z,29.54
2023-02-04T14:47:54.115Z,29.61
2023-02-04T14:53:01.614Z,29.88
2023-02-04T14:58:08.891Z,29.87
2023-02-04T15:03:18.718Z,29.25
2023-02-04T15:08:24.682Z,30.67
2023-02-04T15:13:31.193Z,29.32
2023-02-04T15:18:36.929Z,30.05
2023-02-04T15:23:59.265Z,29.65
2023-02-04T15:29:06.820Z,29.56
2023-02-04T15:34:12.577Z,30.53
2023-02-04T15:39:19.967Z,30.43
2023-02-04T15:44:28.251Z,29.82
2023-02-04T15:49:35.400Z,30.17
2023-02-04T15:54:42.613Z,31.00
2023-02-04T15:59:48.739Z,30.43
2023-02-04T16:04:55.766Z,30.62
2023-02-04T16:10:01.134Z,30.19
2023-02-04T16:15:08.554Z,29.84
2023-02-04T16:20:15.117Z,29.64
2023-02-04T16:25:20.902Z,29.46
2023-02-04T16:30:27.696Z,30.27
2023-02-04T16:35:36.095Z,30.18
2023-02-04T16:40:40.987Z,29.76
2023-02-04T16:45:46.715Z,31.00
2023-02-04T16:50:51.939Z,30.58
2023-02-04T16:55:57.576Z,30.52
2023-02-04T17:01:03.235Z,31.70
2023-02-04T17:06:08.270Z,30.40
2023-02-04T17:11:33.498Z,30.95
2023-02-04T17:16:38.988Z,31.49
2023-02-04T17:21:44.373Z,31.52
2023-02-04T17:26:50.081Z,30.78
2023-02-04T17:31:57.244Z,30.92
2023-02-04T17:37:02.749Z,31.09
2023-02-04T17:42:07.938Z,30.81
2023-02-04T17:47:13.923Z,31.05
2023-02-04T17:52:19.197Z,30.92
2023-02-04T17:57:24.313Z,31.93
2023-02-04T18:02:32.881Z,31.93
2023-02-04T18:07:38.643Z,32.47
2023-02-04T18:12:43.843Z,32.42
2023-02-04T18:17:48.865Z,32.51
2023-02-04T18:23:04.060Z,31.34
2023-02-04T18:28:17.898Z,30.25
2023-02-04T18:33:28.325Z,30.27
2023-02-04T18:38:40.439Z,30.72
2023-02-04T18:43:55.200Z,31.35
2023-02-04T18:49:32.693Z,31.37
2023-02-04T18:54:39.531Z,32.37
2023-02-04T18:59:44.861Z,32.53
2023-02-04T19:04:49.980Z,32.50
2023-02-04T19:09:57.695Z,32.55
2023-02-04T19:15:03.324Z,32.62
2023-02-04T19:20:20.851Z,33.05
2023-02-04T19:25:36.834Z,30.77
2023-02-04T19:30:47.989Z,31.98
2023-02-04T19:35:53.552Z,31.68
2023-02-04T19:40:58.761Z,31.92
2023-02-04T19:46:18.398Z,32.02
2023-02-04T19:51:32.043Z,31.99
2023-02-04T19:56:39.798Z,31.86
2023-02-04T20:01:45.299Z,33.52
2023-02-04T20:06:50.771Z,32.94
2023-02-04T20:11:58.503Z,33.58
2023-02-04T20:17:12.284Z,33.63
2023-02-04T20:22:24.622Z,33.40
2023-02-04T20:27:37.962Z,33.26
2023-02-04T20:32:47.516Z,32.61
2023-02-04T20:37:58.553Z,32.65
2023-02-04T20:43:08.370Z,32.65
2023-02-04T20:48:19.032Z,32.82
2023-02-04T20:53:30.959Z,32.49
2023-02-04T20:58:43.466Z,33.33
2023-02-04T21:03:50.656Z,33.86
2023-02-04T21:08:58.702Z,33.30
2023-02-04T21:14:03.540Z,33.85
2023-02-04T21:19:07.578Z,33.26
2023-02-04T21:24:12.215Z,33.79
2023-02-04T21:29:17.021Z,33.79
2023-02-04T21:34:21.648Z,33.59
2023-02-04T21:39:27.415Z,33.74
2023-02-04T21:44:32.161Z,33.53
2023-02-04T21:49:39.812Z,33.27
2023-02-04T21:54:46.137Z,33.31
2023-02-04T21:59:51.277Z,32.84
2023-02-04T22:04:56.078Z,33.17
2023-02-04T22:10:00.818Z,33.72
2023-02-04T22:15:05.371Z,32.04
2023-02-04T22:20:11.878Z,33.52
2023-02-04T22:25:19.714Z,33.73
2023-02-04T22:30:27.310Z,34.53
2023-02-04T22:35:36.273Z,36.92
2023-02-04T22:40:41.608Z,33.95
2023-02-04T22:45:48.190Z,33.70
2023-02-04T22:50:53.440Z,33.74
2023-02-04T22:55:59.009Z,34.77
2023-02-04T23:01:04.499Z,33.79
2023-02-04T23:06:10.123Z,33.14
2023-02-04T23:11:15.445Z,33.87
2023-02-04T23:16:21.063Z,35.48
2023-02-04T23:21:26.630Z,34.79
2023-02-04T23:26:30.975Z,33.71
2023-02-04T23:31:36.296Z,34.21
2023-02-04T23:36:41.003Z,34.64
2023-02-04T23:41:45.196Z,34.33
2023-02-04T23:46:50.513Z,33.28
2023-02-04T23:51:55.269Z,33.25
2023-02-04T23:57:00.171Z,35.15
